Time;durP1;ratioP1;P1;durP2;ratioP2;P2;SDS_P1;SDS_P2;PMS_P1;PMS_P2;Temp;Humidity;BMP_temperature;BMP_pressure;BME280_temperature;BME280_humidity;BME280_pressure;Samples;Min_cycle;Max_cycle;Signal;HPM_P1;HPM_P2
2022/07/22 00:01:49;;;;;;;8.35;4.95;;;;;;;;;;5030865;28;20021;-68
2022/07/22 00:04:14;;;;;;;10.88;5.53;;;;;;;;;;5032642;28;20025;-68
2022/07/22 00:06:39;;;;;;;8.88;5.35;;;;;;;;;;5033681;28;20045;-68
2022/07/22 00:09:05;;;;;;;13.38;5.40;;;;;;;;;;5030768;28;20045;-68
2022/07/22 00:11:30;;;;;;;10.88;5.68;;;;;;;;;;5029910;28;20392;-67
2022/07/22 00:13:55;;;;;;;15.98;7.05;;;;;;;;;;5032464;28;20048;-67
2022/07/22 00:16:20;;;;;;;14.15;8.60;;;;;;;;;;5029754;28;20029;-68
2022/07/22 00:18:46;;;;;;;13.52;8.52;;;;;;;;;;5030873;28;20064;-68
2022/07/22 00:21:11;;;;;;;18.65;8.38;;;;;;;;;;5031527;28;20474;-68
2022/07/22 00:23:37;;;;;;;15.38;8.60;;;;;;;;;;5032320;28;20041;-68
2022/07/22 00:26:02;;;;;;;14.45;8.15;;;;;;;;;;5029136;28;20147;-68
2022/07/22 00:28:27;;;;;;;15.07;7.15;;;;;;;;;;5030404;28;20053;-67
2022/07/22 00:30:53;;;;;;;13.27;6.20;;;;;;;;;;5016163;28;20118;-68
2022/07/22 00:33:18;;;;;;;14.10;6.50;;;;;;;;;;5022020;28;20137;-68
2022/07/22 00:35:43;;;;;;;13.60;6.47;;;;;;;;;;5030383;28;20053;-68
2022/07/22 00:38:09;;;;;;;16.08;5.70;;;;;;;;;;5030127;28;20030;-67
2022/07/22 00:40:34;;;;;;;10.73;5.45;;;;;;;;;;5030465;28;20025;-68
2022/07/22 00:42:59;;;;;;;13.60;5.88;;;;;;;;;;5029899;28;20025;-68
2022/07/22 00:45:24;;;;;;;13.15;5.93;;;;;;;;;;5030177;28;20853;-67
2022/07/22 00:47:50;;;;;;;16.88;6.13;;;;;;;;;;5029468;28;20450;-68
2022/07/22 00:50:16;;;;;;;13.55;5.40;;;;;;;;;;5029600;28;20513;-68
2022/07/22 00:52:42;;;;;;;15.65;5.40;;;;;;;;;;5029889;28;20393;-67
2022/07/22 00:55:08;;;;;;;13.07;5.85;;;;;;;;;;5032004;28;20029;-68
2022/07/22 00:57:33;;;;;;;9.38;4.95;;;;;;;;;;5032749;28;20033;-68
2022/07/22 00:59:59;;;;;;;14.75;5.57;;;;;;;;;;5035939;28;20032;-68
2022/07/22 01:02:24;;;;;;;14.93;5.20;;;;;;;;;;5033689;28;20064;-68
2022/07/22 01:04:50;;;;;;;16.63;5.40;;;;;;;;;;5033590;28;20049;-68
2022/07/22 01:07:15;;;;;;;11.95;5.63;;;;;;;;;;5036489;28;20029;-68
2022/07/22 01:09:44;;;;;;;14.85;5.60;;;;;;;;;;5035950;28;20040;-68
2022/07/22 01:12:10;;;;;;;13.77;5.78;;;;;;;;;;5032856;28;20025;-67
2022/07/22 01:14:35;;;;;;;12.10;5.60;;;;;;;;;;5033075;28;20536;-67
2022/07/22 01:17:01;;;;;;;12.95;5.10;;;;;;;;;;5032811;28;20026;-67
2022/07/22 01:19:26;;;;;;;14.15;4.10;;;;;;;;;;5031716;28;20017;-68
2022/07/22 01:21:51;;;;;;;13.50;4.63;;;;;;;;;;5032956;28;20053;-67
2022/07/22 01:24:17;;;;;;;9.52;4.65;;;;;;;;;;5033106;28;20469;-67
2022/07/22 01:26:42;;;;;;;10.98;4.32;;;;;;;;;;5031699;28;20029;-67
2022/07/22 01:29:07;;;;;;;12.60;4.50;;;;;;;;;;5033205;28;20033;-67
2022/07/22 01:31:32;;;;;;;15.82;4.25;;;;;;;;;;5031770;28;20025;-67
2022/07/22 01:33:58;;;;;;;13.63;4.30;;;;;;;;;;5033913;28;20057;-67
2022/07/22 01:36:23;;;;;;;17.25;4.95;;;;;;;;;;5031996;28;20091;-67
2022/07/22 01:38:48;;;;;;;16.42;4.32;;;;;;;;;;5034256;28;20049;-67
2022/07/22 01:41:14;;;;;;;14.05;4.53;;;;;;;;;;5035823;28;20021;-67
2022/07/22 01:43:39;;;;;;;15.32;4.68;;;;;;;;;;5031269;28;20390;-68
2022/07/22 01:46:04;;;;;;;16.70;5.07;;;;;;;;;;5036071;28;20013;-67
2022/07/22 01:48:30;;;;;;;11.93;4.78;;;;;;;;;;5032054;28;20049;-68
2022/07/22 01:50:55;;;;;;;17.95;5.20;;;;;;;;;;5035942;28;20029;-67
2022/07/22 01:53:20;;;;;;;13.43;5.35;;;;;;;;;;5032215;28;20043;-67
2022/07/22 01:55:46;;;;;;;13.20;5.10;;;;;;;;;;5033610;28;20021;-67
2022/07/22 01:58:11;;;;;;;12.77;5.10;;;;;;;;;;5033513;28;20021;-68
2022/07/22 02:00:38;;;;;;;13.35;4.90;;;;;;;;;;5032222;28;20029;-67
2022/07/22 02:03:03;;;;;;;12.77;4.93;;;;;;;;;;5033685;28;20406;-67
2022/07/22 02:05:29;;;;;;;9.48;4.65;;;;;;;;;;5030790;28;20017;-67
2022/07/22 02:07:59;;;;;;;12.00;4.50;;;;;;;;;;5034663;28;20381;-68
2022/07/22 02:10:24;;;;;;;17.48;4.40;;;;;;;;;;5030089;28;20097;-67
2022/07/22 02:12:49;;;;;;;13.35;4.20;;;;;;;;;;5035322;28;20147;-67
2022/07/22 02:15:14;;;;;;;10.20;3.97;;;;;;;;;;5031756;28;20052;-67
2022/07/22 02:17:40;;;;;;;11.40;4.05;;;;;;;;;;5033190;28;20052;-67
2022/07/22 02:20:05;;;;;;;12.68;5.28;;;;;;;;;;5031733;28;20386;-68
2022/07/22 02:22:30;;;;;;;11.73;4.00;;;;;;;;;;5031804;28;20022;-68
2022/07/22 02:24:56;;;;;;;11.73;3.88;;;;;;;;;;5032170;28;20029;-67
2022/07/22 02:27:21;;;;;;;10.35;3.75;;;;;;;;;;5034803;28;20096;-67
2022/07/22 02:29:46;;;;;;;11.40;3.63;;;;;;;;;;5022007;28;20018;-67
2022/07/22 02:32:11;;;;;;;14.25;3.67;;;;;;;;;;5035564;28;20156;-67
2022/07/22 02:34:37;;;;;;;14.13;3.88;;;;;;;;;;5031955;28;20132;-67
2022/07/22 02:37:02;;;;;;;12.63;3.22;;;;;;;;;;5032091;28;20091;-67
2022/07/22 02:39:27;;;;;;;8.75;3.20;;;;;;;;;;5030615;28;20083;-67
2022/07/22 02:41:52;;;;;;;9.20;3.30;;;;;;;;;;5031622;28;20048;-67
2022/07/22 02:44:18;;;;;;;9.43;3.00;;;;;;;;;;5032283;28;20018;-67
2022/07/22 02:46:43;;;;;;;7.40;3.13;;;;;;;;;;5032693;28;20033;-67
2022/07/22 02:49:08;;;;;;;7.95;3.72;;;;;;;;;;5030833;28;20083;-67
2022/07/22 02:51:33;;;;;;;9.93;3.78;;;;;;;;;;5030860;28;20078;-67
2022/07/22 02:53:59;;;;;;;12.10;4.20;;;;;;;;;;5033721;28;20025;-67
2022/07/22 02:56:24;;;;;;;13.93;4.43;;;;;;;;;;5031865;28;20057;-67
2022/07/22 02:58:51;;;;;;;11.13;4.68;;;;;;;;;;5030148;28;20033;-67
2022/07/22 03:01:17;;;;;;;16.38;4.20;;;;;;;;;;5032598;28;20051;-68
2022/07/22 03:03:42;;;;;;;11.75;4.65;;;;;;;;;;5031449;28;20698;-68
2022/07/22 03:06:08;;;;;;;13.55;4.47;;;;;;;;;;5034176;28;20393;-68
2022/07/22 03:08:33;;;;;;;10.80;4.32;;;;;;;;;;5030878;28;20461;-68
2022/07/22 03:10:58;;;;;;;14.10;4.30;;;;;;;;;;5033005;28;20111;-68
2022/07/22 03:13:23;;;;;;;12.27;3.90;;;;;;;;;;5031676;28;20080;-67
2022/07/22 03:15:49;;;;;;;12.90;4.05;;;;;;;;;;5032056;28;20025;-68
2022/07/22 03:18:14;;;;;;;10.60;3.95;;;;;;;;;;5031668;28;20048;-68
2022/07/22 03:20:39;;;;;;;14.25;4.63;;;;;;;;;;5030422;28;20436;-68
2022/07/22 03:23:04;;;;;;;13.52;4.20;;;;;;;;;;5030310;28;20432;-68
2022/07/22 03:25:32;;;;;;;16.42;4.88;;;;;;;;;;5032462;28;20385;-67
2022/07/22 03:27:57;;;;;;;14.10;3.65;;;;;;;;;;5031073;28;20531;-68
2022/07/22 03:30:22;;;;;;;12.23;3.92;;;;;;;;;;5032812;28;20049;-68
2022/07/22 03:32:48;;;;;;;14.65;3.80;;;;;;;;;;5034547;28;20474;-68
2022/07/22 03:35:13;;;;;;;12.80;3.47;;;;;;;;;;5035114;28;20037;-68
2022/07/22 03:37:39;;;;;;;10.60;4.05;;;;;;;;;;5030902;28;20052;-67
2022/07/22 03:40:04;;;;;;;14.65;3.90;;;;;;;;;;5031411;28;20100;-68
2022/07/22 03:42:30;;;;;;;13.45;3.80;;;;;;;;;;5030568;28;20076;-68
2022/07/22 03:44:56;;;;;;;13.00;3.75;;;;;;;;;;5031924;28;20025;-68
2022/07/22 03:47:22;;;;;;;15.73;4.55;;;;;;;;;;5031296;28;20039;-68
2022/07/22 03:49:47;;;;;;;13.65;4.07;;;;;;;;;;5018019;28;20082;-68
2022/07/22 03:52:13;;;;;;;13.63;4.25;;;;;;;;;;5032796;28;20045;-68
2022/07/22 03:54:38;;;;;;;21.33;5.63;;;;;;;;;;5031832;28;20036;-67
2022/07/22 03:57:03;;;;;;;13.00;3.78;;;;;;;;;;5030232;28;20386;-67
2022/07/22 03:59:28;;;;;;;12.70;4.43;;;;;;;;;;5029776;28;20484;-68
2022/07/22 04:01:54;;;;;;;14.02;4.15;;;;;;;;;;5028429;28;20033;-68
2022/07/22 04:04:19;;;;;;;13.73;4.13;;;;;;;;;;5028996;28;20053;-68
2022/07/22 04:06:45;;;;;;;11.82;3.90;;;;;;;;;;5030222;28;20034;-68
2022/07/22 04:09:10;;;;;;;14.80;4.05;;;;;;;;;;5030357;28;20044;-68
2022/07/22 04:11:35;;;;;;;17.85;4.00;;;;;;;;;;5018559;28;20371;-68
2022/07/22 04:14:00;;;;;;;14.02;4.00;;;;;;;;;;5032543;28;20065;-68
2022/07/22 04:16:26;;;;;;;13.10;4.10;;;;;;;;;;5029020;28;20733;-68
2022/07/22 04:18:51;;;;;;;19.00;4.50;;;;;;;;;;5030731;28;20377;-68
2022/07/22 04:21:16;;;;;;;11.05;3.30;;;;;;;;;;5031974;28;20504;-68
2022/07/22 04:23:42;;;;;;;15.25;3.83;;;;;;;;;;5029376;28;20029;-68
2022/07/22 04:26:07;;;;;;;13.55;4.10;;;;;;;;;;5030623;28;20124;-68
2022/07/22 04:28:33;;;;;;;14.15;3.67;;;;;;;;;;5032145;28;20453;-68
2022/07/22 04:30:59;;;;;;;13.88;4.22;;;;;;;;;;5033136;28;20021;-68
2022/07/22 04:33:24;;;;;;;11.70;3.50;;;;;;;;;;5035287;28;20100;-68
2022/07/22 04:35:49;;;;;;;12.23;3.40;;;;;;;;;;5034254;28;20013;-68
2022/07/22 04:38:16;;;;;;;13.95;3.40;;;;;;;;;;5035002;28;20025;-68
2022/07/22 04:40:41;;;;;;;17.33;3.63;;;;;;;;;;5034521;28;20079;-67
2022/07/22 04:43:06;;;;;;;11.48;3.20;;;;;;;;;;5033284;28;20833;-68
2022/07/22 04:45:32;;;;;;;13.55;4.18;;;;;;;;;;5033600;28;20033;-67
2022/07/22 04:47:57;;;;;;;13.20;3.38;;;;;;;;;;5035605;28;20030;-67
2022/07/22 04:50:22;;;;;;;11.18;3.30;;;;;;;;;;5033490;28;20244;-68
2022/07/22 04:52:47;;;;;;;11.25;3.53;;;;;;;;;;5032385;28;20038;-68
2022/07/22 04:55:13;;;;;;;14.30;3.70;;;;;;;;;;5035133;28;20036;-68
2022/07/22 04:57:38;;;;;;;12.88;3.35;;;;;;;;;;5033642;28;20029;-68
2022/07/22 05:00:03;;;;;;;13.73;3.85;;;;;;;;;;5034553;28;20119;-68
2022/07/22 05:02:29;;;;;;;14.90;3.65;;;;;;;;;;5044444;28;20029;-68
2022/07/22 05:04:54;;;;;;;12.45;3.83;;;;;;;;;;5033899;28;20049;-68
2022/07/22 05:07:19;;;;;;;14.40;3.80;;;;;;;;;;5033042;28;20029;-67
2022/07/22 05:09:45;;;;;;;13.65;3.83;;;;;;;;;;5044594;28;20099;-67
2022/07/22 05:12:10;;;;;;;13.52;4.45;;;;;;;;;;5033803;28;20556;-67
2022/07/22 05:14:35;;;;;;;11.73;4.40;;;;;;;;;;5033331;28;20071;-68
2022/07/22 05:17:00;;;;;;;16.33;5.13;;;;;;;;;;5035923;28;20025;-68
2022/07/22 05:19:26;;;;;;;15.40;5.38;;;;;;;;;;5032980;28;20029;-67
2022/07/22 05:21:51;;;;;;;14.30;5.15;;;;;;;;;;5033441;28;20047;-67
2022/07/22 05:24:16;;;;;;;19.20;5.97;;;;;;;;;;5033066;28;20032;-67
2022/07/22 05:26:41;;;;;;;15.60;5.05;;;;;;;;;;5033205;28;20025;-68
2022/07/22 05:29:07;;;;;;;17.60;5.32;;;;;;;;;;5037038;28;20115;-67
2022/07/22 05:31:32;;;;;;;16.80;5.70;;;;;;;;;;5037724;28;20037;-67
2022/07/22 05:33:57;;;;;;;14.13;5.05;;;;;;;;;;5032897;28;20045;-67
2022/07/22 05:36:23;;;;;;;27.58;6.95;;;;;;;;;;5032451;28;20509;-67
2022/07/22 05:38:48;;;;;;;15.93;5.00;;;;;;;;;;5032576;28;20053;-67
2022/07/22 05:41:13;;;;;;;14.60;5.38;;;;;;;;;;5037525;28;20109;-67
2022/07/22 05:43:38;;;;;;;14.52;4.68;;;;;;;;;;5033586;28;20025;-67
2022/07/22 05:46:04;;;;;;;17.77;5.18;;;;;;;;;;5033232;28;20029;-67
2022/07/22 05:48:29;;;;;;;17.08;4.80;;;;;;;;;;5033387;28;20018;-67
2022/07/22 05:50:54;;;;;;;15.45;5.07;;;;;;;;;;5033128;28;20064;-67
2022/07/22 05:53:19;;;;;;;18.48;4.63;;;;;;;;;;5032562;28;20091;-67
2022/07/22 05:55:45;;;;;;;19.92;4.82;;;;;;;;;;5035431;28;20485;-67
2022/07/22 05:58:10;;;;;;;15.55;3.97;;;;;;;;;;5032445;28;20041;-67
2022/07/22 06:00:35;;;;;;;14.80;3.70;;;;;;;;;;5034776;28;20025;-67
2022/07/22 06:03:00;;;;;;;11.70;3.83;;;;;;;;;;5032131;28;20104;-67
2022/07/22 06:05:26;;;;;;;12.95;3.72;;;;;;;;;;5032711;28;20037;-67
2022/07/22 06:07:51;;;;;;;9.93;3.92;;;;;;;;;;5033225;28;20040;-67
2022/07/22 06:10:16;;;;;;;18.30;3.60;;;;;;;;;;5031519;28;20035;-67
2022/07/22 06:12:41;;;;;;;11.60;3.67;;;;;;;;;;5032640;28;20037;-67
2022/07/22 06:15:07;;;;;;;9.38;4.00;;;;;;;;;;5032112;28;20405;-67
2022/07/22 06:17:32;;;;;;;13.52;3.70;;;;;;;;;;5032275;28;20370;-67
2022/07/22 06:19:57;;;;;;;11.15;4.00;;;;;;;;;;5032549;28;20038;-67
2022/07/22 06:22:23;;;;;;;15.98;4.22;;;;;;;;;;5033189;28;20091;-67
2022/07/22 06:24:48;;;;;;;12.35;4.30;;;;;;;;;;5033544;28;20040;-67
2022/07/22 06:27:13;;;;;;;12.52;3.75;;;;;;;;;;5041557;28;20111;-67
2022/07/22 06:29:40;;;;;;;16.60;4.00;;;;;;;;;;5033026;28;20040;-67
2022/07/22 06:32:05;;;;;;;13.68;4.95;;;;;;;;;;5030796;28;20028;-67
2022/07/22 06:34:30;;;;;;;14.65;3.97;;;;;;;;;;5031917;28;20030;-68
2022/07/22 06:36:56;;;;;;;11.85;3.95;;;;;;;;;;5032039;28;20034;-67
2022/07/22 06:39:21;;;;;;;11.65;3.80;;;;;;;;;;5032110;28;20395;-67
2022/07/22 06:41:46;;;;;;;13.75;3.75;;;;;;;;;;5032424;28;20462;-67
2022/07/22 06:44:12;;;;;;;14.48;3.72;;;;;;;;;;5031768;28;20024;-67
2022/07/22 06:46:37;;;;;;;13.40;3.42;;;;;;;;;;5031777;28;20032;-67
2022/07/22 06:49:02;;;;;;;12.23;3.60;;;;;;;;;;5031550;28;20033;-67
2022/07/22 06:51:27;;;;;;;10.32;3.25;;;;;;;;;;5031473;28;20127;-68
2022/07/22 06:53:53;;;;;;;16.77;4.00;;;;;;;;;;5031583;28;20075;-67
2022/07/22 06:56:18;;;;;;;6.93;2.70;;;;;;;;;;5031685;28;20032;-67
2022/07/22 06:58:43;;;;;;;13.30;3.47;;;;;;;;;;5031016;28;20147;-68
2022/07/22 07:01:08;;;;;;;9.60;2.95;;;;;;;;;;5031841;28;20076;-68
2022/07/22 07:03:34;;;;;;;11.75;2.95;;;;;;;;;;5029769;28;20347;-68
2022/07/22 07:05:59;;;;;;;8.77;2.63;;;;;;;;;;5026761;28;20395;-68
2022/07/22 07:08:24;;;;;;;9.82;2.10;;;;;;;;;;5029437;28;20068;-68
2022/07/22 07:10:49;;;;;;;9.88;3.20;;;;;;;;;;5034064;28;20025;-68
2022/07/22 07:13:15;;;;;;;7.38;2.35;;;;;;;;;;5030576;28;20382;-67
2022/07/22 07:15:40;;;;;;;6.93;2.45;;;;;;;;;;5031187;28;20104;-68
2022/07/22 07:18:05;;;;;;;9.38;2.25;;;;;;;;;;5030103;28;20071;-68
2022/07/22 07:20:31;;;;;;;8.20;2.40;;;;;;;;;;5029789;28;20021;-67
2022/07/22 07:22:59;;;;;;;9.75;2.80;;;;;;;;;;5032142;28;20476;-68
2022/07/22 07:25:24;;;;;;;10.10;2.00;;;;;;;;;;5030971;28;20025;-68
2022/07/22 07:27:50;;;;;;;12.18;2.33;;;;;;;;;;5028135;28;20073;-67
2022/07/22 07:30:15;;;;;;;7.40;2.20;;;;;;;;;;5031438;28;20026;-67
2022/07/22 07:32:40;;;;;;;6.65;2.00;;;;;;;;;;5030042;28;20094;-67
2022/07/22 07:35:06;;;;;;;9.50;2.15;;;;;;;;;;5034619;28;20053;-67
2022/07/22 07:37:31;;;;;;;9.27;2.70;;;;;;;;;;5030543;28;20449;-68
2022/07/22 07:39:57;;;;;;;10.90;2.60;;;;;;;;;;5031154;28;20029;-67
2022/07/22 07:42:22;;;;;;;9.48;2.20;;;;;;;;;;5030631;28;20025;-67
2022/07/22 07:44:47;;;;;;;7.65;1.95;;;;;;;;;;5030521;28;20017;-68
2022/07/22 07:47:17;;;;;;;7.03;2.00;;;;;;;;;;5030661;28;20030;-68
2022/07/22 07:49:42;;;;;;;4.63;2.38;;;;;;;;;;5030176;28;20029;-69
2022/07/22 07:52:07;;;;;;;6.78;2.10;;;;;;;;;;5031748;28;20037;-67
2022/07/22 07:54:33;;;;;;;10.30;1.90;;;;;;;;;;5030510;28;20072;-68
2022/07/22 07:56:58;;;;;;;5.28;1.80;;;;;;;;;;5031376;28;20033;-68
2022/07/22 07:59:23;;;;;;;8.60;1.80;;;;;;;;;;5030565;28;20477;-68
2022/07/22 08:01:48;;;;;;;8.27;1.75;;;;;;;;;;5032104;28;20685;-68
2022/07/22 08:04:14;;;;;;;6.45;1.90;;;;;;;;;;5031881;28;20033;-68
2022/07/22 08:06:39;;;;;;;8.98;1.77;;;;;;;;;;5032909;28;20468;-68
2022/07/22 08:09:04;;;;;;;8.88;2.20;;;;;;;;;;5041592;28;20362;-68
2022/07/22 08:11:29;;;;;;;7.75;2.08;;;;;;;;;;5034000;28;20389;-67
2022/07/22 08:13:55;;;;;;;6.97;1.90;;;;;;;;;;5035333;28;20100;-68
2022/07/22 08:16:20;;;;;;;9.02;1.90;;;;;;;;;;5033790;28;20432;-68
2022/07/22 08:18:45;;;;;;;6.90;1.45;;;;;;;;;;5035724;28;20014;-68
2022/07/22 08:21:10;;;;;;;5.22;1.65;;;;;;;;;;5033709;28;20049;-68
2022/07/22 08:23:36;;;;;;;6.13;1.52;;;;;;;;;;5034598;28;20072;-68
2022/07/22 08:26:01;;;;;;;9.00;1.70;;;;;;;;;;5033925;28;20026;-68
2022/07/22 08:28:26;;;;;;;6.18;1.67;;;;;;;;;;5032881;28;20039;-67
2022/07/22 08:30:52;;;;;;;5.85;1.40;;;;;;;;;;5032928;28;20049;-68
2022/07/22 08:33:17;;;;;;;6.93;1.40;;;;;;;;;;5032007;28;20109;-67
2022/07/22 08:35:42;;;;;;;6.80;1.48;;;;;;;;;;5035994;28;20109;-68
2022/07/22 08:38:08;;;;;;;6.75;1.50;;;;;;;;;;5033959;28;20037;-68
2022/07/22 08:40:33;;;;;;;3.97;1.20;;;;;;;;;;5036039;28;20469;-68
2022/07/22 08:43:02;;;;;;;4.97;1.50;;;;;;;;;;5034310;28;20108;-69
2022/07/22 08:45:28;;;;;;;6.10;1.55;;;;;;;;;;5033906;28;20105;-68
2022/07/22 08:47:53;;;;;;;4.75;1.55;;;;;;;;;;5033828;28;20112;-68
2022/07/22 08:50:18;;;;;;;5.60;1.80;;;;;;;;;;5034508;28;20025;-69
2022/07/22 08:52:44;;;;;;;6.32;1.60;;;;;;;;;;5033508;28;20049;-68
2022/07/22 08:55:09;;;;;;;9.13;2.13;;;;;;;;;;5033027;28;20025;-68
2022/07/22 08:57:36;;;;;;;6.72;1.58;;;;;;;;;;5034063;28;20075;-68
2022/07/22 09:00:09;;;;;;;7.95;1.80;;;;;;;;;;5034967;28;20032;-68
2022/07/22 09:02:36;;;;;;;6.07;1.52;;;;;;;;;;5033927;28;20049;-69
2022/07/22 09:05:03;;;;;;;5.07;1.70;;;;;;;;;;5031430;28;20462;-68
2022/07/22 09:07:29;;;;;;;9.13;2.45;;;;;;;;;;5027197;28;20014;-68
2022/07/22 09:09:54;;;;;;;5.57;1.58;;;;;;;;;;5034085;28;20045;-67
2022/07/22 09:12:22;;;;;;;7.18;1.77;;;;;;;;;;5034620;28;20051;-68
2022/07/22 09:14:48;;;;;;;7.35;1.80;;;;;;;;;;5033181;28;20120;-68
2022/07/22 09:17:28;;;;;;;4.43;1.55;;;;;;;;;;5033078;28;20489;-67
2022/07/22 09:19:54;;;;;;;5.18;1.70;;;;;;;;;;5033815;28;20096;-68
2022/07/22 09:22:32;;;;;;;8.65;1.90;;;;;;;;;;5034844;28;20026;-68
2022/07/22 09:24:58;;;;;;;17.40;2.58;;;;;;;;;;5032941;28;20155;-68
2022/07/22 09:27:24;;;;;;;6.03;1.80;;;;;;;;;;5033124;28;20048;-67
2022/07/22 09:29:50;;;;;;;9.07;2.15;;;;;;;;;;5035007;28;20030;-68
2022/07/22 09:32:15;;;;;;;7.10;2.00;;;;;;;;;;5033516;28;20389;-67
2022/07/22 09:34:41;;;;;;;5.88;2.00;;;;;;;;;;5034269;28;20029;-67
2022/07/22 09:37:06;;;;;;;11.23;2.80;;;;;;;;;;5033006;28;20028;-68
2022/07/22 09:39:32;;;;;;;10.63;2.00;;;;;;;;;;5032342;28;20013;-68
2022/07/22 09:41:58;;;;;;;6.85;2.17;;;;;;;;;;5033067;28;20049;-68
2022/07/22 09:44:23;;;;;;;7.32;2.20;;;;;;;;;;5032105;28;20379;-68
2022/07/22 09:46:49;;;;;;;7.50;1.80;;;;;;;;;;5033011;28;20101;-67
2022/07/22 09:49:29;;;;;;;7.40;2.00;;;;;;;;;;5032632;28;20117;-68
2022/07/22 09:51:55;;;;;;;6.13;2.15;;;;;;;;;;5032773;28;20053;-68
2022/07/22 09:54:20;;;;;;;7.65;2.38;;;;;;;;;;5032897;28;20603;-68
2022/07/22 09:56:46;;;;;;;12.07;2.00;;;;;;;;;;5032722;28;20386;-67
2022/07/22 09:59:12;;;;;;;7.78;2.00;;;;;;;;;;5032901;28;20021;-67
2022/07/22 10:01:37;;;;;;;8.00;2.05;;;;;;;;;;5031775;28;20450;-68
2022/07/22 10:04:04;;;;;;;6.78;1.85;;;;;;;;;;5031336;28;20082;-68
2022/07/22 10:06:29;;;;;;;21.13;2.65;;;;;;;;;;5031827;28;20033;-67
2022/07/22 10:08:55;;;;;;;7.75;2.08;;;;;;;;;;5032512;28;20018;-67
2022/07/22 10:11:20;;;;;;;8.82;2.00;;;;;;;;;;5032650;28;20013;-67
2022/07/22 10:13:46;;;;;;;8.75;1.90;;;;;;;;;;5032711;28;20080;-67
2022/07/22 10:16:12;;;;;;;5.72;2.00;;;;;;;;;;5032161;28;20028;-68
2022/07/22 10:18:37;;;;;;;9.93;1.98;;;;;;;;;;5032219;28;20037;-69
2022/07/22 10:21:07;;;;;;;6.63;1.85;;;;;;;;;;5032135;28;20022;-68
2022/07/22 10:23:32;;;;;;;5.65;1.80;;;;;;;;;;5032406;28;20028;-68
2022/07/22 10:25:59;;;;;;;6.32;1.90;;;;;;;;;;5035797;28;20096;-67
2022/07/22 10:28:24;;;;;;;6.43;1.92;;;;;;;;;;5032182;28;20043;-67
2022/07/22 10:30:50;;;;;;;8.07;2.20;;;;;;;;;;5032543;28;20108;-67
2022/07/22 10:33:22;;;;;;;6.40;1.95;;;;;;;;;;5031353;28;20328;-68
2022/07/22 10:35:57;;;;;;;8.70;2.03;;;;;;;;;;5030968;28;20120;-67
2022/07/22 10:38:22;;;;;;;9.98;2.40;;;;;;;;;;5029737;28;20490;-67
2022/07/22 10:40:49;;;;;;;7.20;2.00;;;;;;;;;;5030478;28;20083;-68
2022/07/22 10:43:18;;;;;;;9.43;2.03;;;;;;;;;;5033193;28;20067;-68
2022/07/22 10:45:46;;;;;;;9.20;2.40;;;;;;;;;;5030294;28;20421;-68
2022/07/22 10:48:13;;;;;;;10.43;1.75;;;;;;;;;;5031033;28;20037;-67
2022/07/22 10:50:38;;;;;;;8.43;2.10;;;;;;;;;;5032119;28;20033;-68
2022/07/22 10:53:06;;;;;;;7.35;2.20;;;;;;;;;;5030973;28;20037;-68
2022/07/22 10:55:32;;;;;;;9.20;2.10;;;;;;;;;;5033635;28;20057;-67
2022/07/22 10:57:57;;;;;;;10.52;2.47;;;;;;;;;;5032829;28;20087;-68
2022/07/22 11:00:22;;;;;;;6.65;1.70;;;;;;;;;;5030906;28;20026;-68
2022/07/22 11:02:48;;;;;;;6.50;1.80;;;;;;;;;;5031185;28;20025;-68
2022/07/22 11:05:14;;;;;;;7.68;1.80;;;;;;;;;;5031163;28;20025;-68
2022/07/22 11:07:43;;;;;;;5.60;1.55;;;;;;;;;;5031693;28;20029;-67
2022/07/22 11:10:13;;;;;;;6.30;1.83;;;;;;;;;;5030261;28;20425;-68
2022/07/22 11:12:38;;;;;;;6.07;2.00;;;;;;;;;;5029030;28;20033;-68
2022/07/22 11:15:06;;;;;;;6.85;1.98;;;;;;;;;;5030554;28;20082;-67
2022/07/22 11:17:34;;;;;;;6.78;1.70;;;;;;;;;;5030492;28;20535;-67
2022/07/22 11:20:00;;;;;;;8.55;1.98;;;;;;;;;;5031621;28;20385;-68
2022/07/22 11:22:25;;;;;;;7.00;1.85;;;;;;;;;;5034047;28;20152;-67
2022/07/22 11:24:50;;;;;;;5.88;1.90;;;;;;;;;;5034269;28;20052;-67
2022/07/22 11:27:17;;;;;;;6.45;1.75;;;;;;;;;;5029305;28;20104;-67
2022/07/22 11:29:46;;;;;;;7.22;2.28;;;;;;;;;;5031854;28;20551;-67
2022/07/22 11:32:13;;;;;;;4.18;1.45;;;;;;;;;;5030789;28;20047;-68
2022/07/22 11:34:48;;;;;;;6.65;2.03;;;;;;;;;;5032612;28;20423;-68
2022/07/22 11:37:14;;;;;;;7.93;1.83;;;;;;;;;;5030338;28;20032;-68
2022/07/22 11:39:39;;;;;;;8.57;1.80;;;;;;;;;;5042708;28;20017;-67
2022/07/22 11:42:05;;;;;;;7.00;2.00;;;;;;;;;;5031312;28;20022;-68
2022/07/22 11:44:31;;;;;;;6.70;1.75;;;;;;;;;;5029618;28;20463;-68
2022/07/22 11:47:00;;;;;;;6.47;1.80;;;;;;;;;;5031923;28;20108;-68
2022/07/22 11:49:26;;;;;;;7.03;1.83;;;;;;;;;;5032863;28;20438;-68
2022/07/22 11:51:52;;;;;;;5.38;1.67;;;;;;;;;;5031195;28;20033;-67
2022/07/22 11:54:17;;;;;;;6.55;1.40;;;;;;;;;;5030864;28;20497;-68
2022/07/22 11:56:43;;;;;;;8.30;1.52;;;;;;;;;;5031009;28;20504;-68
2022/07/22 11:59:12;;;;;;;4.85;1.50;;;;;;;;;;5030671;28;20029;-67
2022/07/22 12:01:37;;;;;;;6.25;1.55;;;;;;;;;;5033135;28;20029;-67
2022/07/22 12:04:03;;;;;;;4.75;1.98;;;;;;;;;;5030209;28;20037;-67
2022/07/22 12:06:29;;;;;;;6.32;2.03;;;;;;;;;;5029573;28;20025;-67
2022/07/22 12:09:03;;;;;;;8.20;2.38;;;;;;;;;;5030896;28;20032;-67
2022/07/22 12:11:29;;;;;;;7.82;2.20;;;;;;;;;;5030833;28;20030;-67
2022/07/22 12:13:54;;;;;;;8.48;1.98;;;;;;;;;;5030599;28;20436;-67
2022/07/22 12:16:22;;;;;;;10.27;2.20;;;;;;;;;;5030151;28;20033;-67
2022/07/22 12:18:52;;;;;;;9.07;2.30;;;;;;;;;;5030566;28;20441;-67
2022/07/22 12:21:17;;;;;;;6.70;2.20;;;;;;;;;;5032577;28;20525;-68
2022/07/22 12:23:49;;;;;;;5.45;2.00;;;;;;;;;;5030340;28;20105;-68
2022/07/22 12:26:14;;;;;;;6.90;2.00;;;;;;;;;;5029602;28;20025;-67
2022/07/22 12:28:39;;;;;;;4.88;1.70;;;;;;;;;;5030478;28;20033;-67
2022/07/22 12:31:05;;;;;;;6.45;2.40;;;;;;;;;;5032026;28;20033;-68
2022/07/22 12:33:30;;;;;;;7.30;2.00;;;;;;;;;;5029414;28;20029;-68
2022/07/22 12:36:00;;;;;;;12.40;2.00;;;;;;;;;;5032536;28;20080;-67
2022/07/22 12:38:25;;;;;;;7.57;1.90;;;;;;;;;;5018988;28;20093;-67
2022/07/22 12:40:51;;;;;;;7.70;1.98;;;;;;;;;;5030688;28;20064;-67
2022/07/22 12:43:17;;;;;;;11.57;2.17;;;;;;;;;;5029087;28;20029;-67
2022/07/22 12:45:42;;;;;;;7.57;2.10;;;;;;;;;;5032608;28;20057;-68
2022/07/22 12:48:09;;;;;;;9.27;3.00;;;;;;;;;;5029670;28;20086;-67
2022/07/22 12:50:39;;;;;;;6.13;2.35;;;;;;;;;;5031638;28;20025;-67
2022/07/22 12:53:12;;;;;;;8.50;2.30;;;;;;;;;;5035000;28;20069;-67
2022/07/22 12:55:48;;;;;;;6.43;2.22;;;;;;;;;;5034215;28;20032;-68
2022/07/22 12:58:13;;;;;;;8.93;2.30;;;;;;;;;;5035177;28;20021;-67
2022/07/22 13:00:40;;;;;;;6.93;2.10;;;;;;;;;;5033936;28;20359;-67
2022/07/22 13:03:06;;;;;;;7.13;1.85;;;;;;;;;;5035375;28;20028;-67
2022/07/22 13:05:31;;;;;;;6.60;2.20;;;;;;;;;;5033995;28;20021;-67
2022/07/22 13:07:57;;;;;;;8.43;1.90;;;;;;;;;;5034414;28;20033;-67
2022/07/22 13:10:23;;;;;;;5.53;2.00;;;;;;;;;;5033862;28;20367;-67
2022/07/22 13:12:49;;;;;;;9.07;2.35;;;;;;;;;;5035071;28;20053;-67
2022/07/22 13:15:14;;;;;;;6.22;2.08;;;;;;;;;;5034315;28;20052;-67
2022/07/22 13:17:39;;;;;;;7.78;2.00;;;;;;;;;;5034911;28;20021;-68
2022/07/22 13:20:06;;;;;;;10.23;2.90;;;;;;;;;;5033859;28;20465;-68
2022/07/22 13:22:31;;;;;;;6.55;1.88;;;;;;;;;;5031483;28;20802;-67
2022/07/22 13:24:56;;;;;;;5.30;2.30;;;;;;;;;;5035355;28;20104;-68
2022/07/22 13:27:21;;;;;;;5.85;2.17;;;;;;;;;;5033001;28;20528;-67
2022/07/22 13:29:47;;;;;;;5.53;2.25;;;;;;;;;;5032922;28;20025;-67
2022/07/22 13:32:12;;;;;;;6.97;2.10;;;;;;;;;;5033485;28;20100;-67
2022/07/22 13:34:37;;;;;;;7.75;2.33;;;;;;;;;;5033273;28;20090;-67
2022/07/22 13:37:03;;;;;;;7.57;2.30;;;;;;;;;;5034427;28;20091;-67
2022/07/22 13:39:28;;;;;;;9.77;2.25;;;;;;;;;;5032292;28;20354;-67
2022/07/22 13:41:53;;;;;;;8.63;2.10;;;;;;;;;;5033676;28;20057;-67
2022/07/22 13:44:19;;;;;;;7.90;2.60;;;;;;;;;;5033100;28;20025;-67
2022/07/22 13:46:45;;;;;;;8.13;2.30;;;;;;;;;;5032491;28;20029;-67
2022/07/22 13:49:10;;;;;;;5.78;2.20;;;;;;;;;;5032981;28;20017;-67
2022/07/22 13:51:36;;;;;;;7.60;2.30;;;;;;;;;;5034695;28;20037;-67
2022/07/22 13:54:01;;;;;;;7.53;2.58;;;;;;;;;;5032020;28;20033;-67
2022/07/22 13:56:26;;;;;;;4.97;2.00;;;;;;;;;;5032005;28;20401;-67
2022/07/22 13:58:52;;;;;;;7.30;2.20;;;;;;;;;;5034555;28;20355;-68
2022/07/22 14:01:17;;;;;;;4.80;2.00;;;;;;;;;;5031677;28;20028;-67
2022/07/22 14:03:42;;;;;;;6.20;2.05;;;;;;;;;;5034313;28;20100;-67
2022/07/22 14:06:08;;;;;;;6.63;2.20;;;;;;;;;;5035687;28;20418;-68
2022/07/22 14:08:34;;;;;;;8.45;2.10;;;;;;;;;;5031656;28;20022;-67
2022/07/22 14:10:59;;;;;;;5.03;2.00;;;;;;;;;;5035854;28;20497;-67
2022/07/22 14:13:25;;;;;;;5.75;2.10;;;;;;;;;;5031579;28;20100;-68
2022/07/22 14:15:50;;;;;;;6.70;1.98;;;;;;;;;;5034633;28;20072;-68
2022/07/22 14:18:15;;;;;;;7.97;2.10;;;;;;;;;;5032618;28;20033;-67
2022/07/22 14:20:40;;;;;;;9.07;2.05;;;;;;;;;;5031654;28;20393;-68
2022/07/22 14:23:09;;;;;;;6.35;2.05;;;;;;;;;;5035172;28;20021;-67
2022/07/22 14:25:34;;;;;;;5.82;2.08;;;;;;;;;;5032812;28;20030;-67
2022/07/22 14:28:00;;;;;;;6.05;1.85;;;;;;;;;;5031806;28;20025;-66